• Join FlightAware (Why Join?)
  • Login
  • US Flag 
09:53PM EDT


 

Airport Tracker/Info


-or-


 

Live Flight TrackerFlight Track Log ✈ SWA3497 ✈ 17-Apr-2013 ✈ KMDW - KSDF

Flight Track Log - Related Links

Times and Time Zones

All times are in EDT time to prevent confusion due to time zone crossing. See the SWA3497 flight status page for this flight to view local times or setup timezone preferences in your user account.

Time Position Orientation Groundspeed Altitude Reporting Facility
EDT Latitude Longitude Course Direction KTS MPH feet Rate Location/Type
12:39PM 41.7158 -87.6678 180° South 206 237 6,900  Level Chicago Center
12:40PM 41.6469 -87.6808 188° South 244 281 10,700 2,460 Climbing Chicago Center
12:41PM 41.5739 -87.6947 188° South 262 302 12,000 1,740 Climbing Chicago Center
12:42PM 41.5000 -87.7083 188° South 266 306 14,300 2,580 Climbing Chicago Center
12:43PM 40.9939 -87.6862 173° South  Level FlightAware Approximate
12:43PM 41.4242 -87.7239 189° South 271 312 17,400  Level Chicago Center
12:44PM 40.8993 -87.6717 173° South  Level FlightAware Approximate
12:44PM 41.3286 -87.7256 181° South 337 388 19,700  Level Chicago Center
12:45PM 41.2122 -87.7253 180° South 347 399 22,900 1,560 Climbing Chicago Center
12:46PM 41.1169 -87.7139 175° South 344 396 23,000  Climbing Chicago Center
12:47PM 41.0183 -87.7008 174° South 352 405 23,000  Level Chicago Center
12:48PM 40.9200 -87.6867 174° South 355 409 23,000  Level Chicago Center
12:49PM 40.8214 -87.6739 174° South 356 410 23,000  Level Chicago Center
12:51PM 40.7225 -87.6600 174° South 357 411 23,000  Level Chicago Center
12:52PM 40.6239 -87.6472 174° South 357 411 23,000  Level Chicago Center
12:53PM 40.5250 -87.6328 174° South 358 412 23,000  Level Chicago Center
12:54PM 40.4064 -87.6178 174° South 358 412 23,000  Level Chicago Center
12:55PM 40.3067 -87.6061 175° South 361 415 23,000  Level Chicago Center
12:56PM 40.2103 -87.6114 182° South 350 403 23,000  Level Chicago Center
12:57PM 40.1103 -87.6169 182° South 356 410 23,000  Level Chicago Center
12:57PM 40.0439 -87.6206 182° South 356 410 23,000  Level Indianapolis Center
12:58PM 39.9511 -87.5667 156° South 381 438 23,000  Level Indianapolis Center
12:59PM 39.8675 -87.4811 142° Southeast 383 441 23,000  Level Indianapolis Center
01:00PM 39.7850 -87.3944 141° Southeast 379 436 23,000  Level Indianapolis Center
01:01PM 39.7025 -87.3094 142° Southeast 378 435 23,000  Level Indianapolis Center
01:02PM 39.6214 -87.2239 141° Southeast 376 433 23,000  Level Indianapolis Center
01:03PM 39.5222 -87.1208 141° Southeast 378 435 23,000  Level Indianapolis Center
01:04PM 39.4392 -87.0369 142° Southeast 378 435 23,000  Level Indianapolis Center
01:06PM 39.3556 -86.9506 141° Southeast 381 438 23,000  Level Indianapolis Center
01:07PM 39.2736 -86.8667 142° Southeast 375 432 23,000 -60 Level Indianapolis Center
01:08PM 39.1908 -86.7819 142° Southeast 376 433 22,900 -600 Descending Indianapolis Center
01:09PM 39.1069 -86.6978 142° Southeast 380 437 21,800 -1,800 Descending Indianapolis Center
01:10PM 39.0222 -86.6117 142° Southeast 384 442 19,300 -2,220 Descending Indianapolis Center
01:11PM 38.9386 -86.5275 142° Southeast 380 437 17,300 -2,040 Descending Indianapolis Center
01:12PM 38.8572 -86.4450 142° Southeast 373 429 15,200 -2,040 Descending Indianapolis Center
01:13PM 38.7889 -86.3519 133° Southeast 360 414 13,200 -2,520 Descending Indianapolis Center
01:14PM 38.7006 -86.2503 138° Southeast 356 410 10,100 -1,800 Descending Indianapolis Center
01:15PM 38.6406 -86.1639 132° Southeast 346 398 9,600 -1,020 Descending Indianapolis Center
01:16PM 38.6006 -86.1061 132° Southeast 288 331 8,300 -1,680 Descending FAA TRACON SMA TRACON (SMA)
01:16PM 38.5794 -86.0781 134° Southeast 285 328 7,700 -1,620 Descending FAA TRACON SMA TRACON (SMA)
01:16PM 38.5633 -86.0544 131° Southeast 285 328 7,200 -1,500 Descending FAA TRACON SMA TRACON (SMA)
01:17PM 38.5469 -86.0311 132° Southeast 285 328 6,700 -1,680 Descending FAA TRACON SMA TRACON (SMA)
01:17PM 38.5267 -86.0028 132° Southeast 283 326 6,100 -1,200 Descending FAA TRACON SMA TRACON (SMA)
01:17PM 38.5106 -85.9814 134° Southeast 276 318 5,900 -600 Descending FAA TRACON SMA TRACON (SMA)
01:18PM 38.4956 -85.9600 132° Southeast 265 305 5,700 -1,440 Descending FAA TRACON SMA TRACON (SMA)
01:18PM 38.4764 -85.9342 133° Southeast 261 300 5,000 -1,980 Descending FAA TRACON SMA TRACON (SMA)
01:18PM 38.4611 -85.9128 132° Southeast 265 305 4,400 -1,620 Descending FAA TRACON SMA TRACON (SMA)
01:19PM 38.4453 -85.8908 133° Southeast 271 312 3,900 -1,500 Descending FAA TRACON SMA TRACON (SMA)
01:19PM 38.4258 -85.8636 132° Southeast 271 312 3,400 -1,380 Descending FAA TRACON SMA TRACON (SMA)
01:19PM 38.4097 -85.8428 135° Southeast 268 308 3,000 -780 Descending FAA TRACON SMA TRACON (SMA)
01:20PM 38.3925 -85.8256 142° Southeast 259 298 2,900 -180 Descending FAA TRACON SMA TRACON (SMA)
01:20PM 38.3725 -85.8064 143° Southeast 238 274 2,900  Level FAA TRACON SMA TRACON (SMA)
01:20PM 38.3542 -85.7886 143° Southeast 218 251 2,900  Level FAA TRACON SMA TRACON (SMA)
01:21PM 38.3372 -85.7831 166° South 207 238 2,900  Level FAA TRACON SMA TRACON (SMA)
01:21PM 38.3206 -85.7772 165° South 202 232 2,900 -360 Level FAA TRACON SMA TRACON (SMA)
01:21PM 38.3042 -85.7714 164° South 199 229 2,700 -780 Descending FAA TRACON SMA TRACON (SMA)
01:22PM 38.2886 -85.7664 166° South 192 221 2,400 -960 Descending FAA TRACON SMA TRACON (SMA)
01:22PM 38.2706 -85.7600 164° South 175 201 2,100 -780 Descending FAA TRACON SMA TRACON (SMA)
01:22PM 38.2581 -85.7556 164° South 157 181 1,900 -780 Descending FAA TRACON SMA TRACON (SMA)
01:23PM 38.2458 -85.7514 165° South 146 168 1,600 -780 Descending FAA TRACON SMA TRACON (SMA)
01:23PM 38.2317 -85.7469 166° South 137 158 1,400 -600 Descending FAA TRACON SMA TRACON (SMA)
01:23PM 38.2211 -85.7431 164° South 129 148 1,200 -600 Descending FAA TRACON SMA TRACON (SMA)
01:24PM 38.2108 -85.7394 165° South 126 145 1,000 -780 Descending FAA TRACON SMA TRACON (SMA)
01:24PM 38.1975 -85.7347 164° South 127 146 700 -600 Descending FAA TRACON SMA TRACON (SMA)
01:24PM 38.1925 -85.7331 165° South 126 145 600 -300 Descending FAA TRACON SMA TRACON (SMA)
01:26PM 38.1667 -85.7333 170° South  Level FlightAware Approximate